Time;durP1;ratioP1;P1;durP2;ratioP2;P2;SDS_P1;SDS_P2;PMS_P1;PMS_P2;Temp;Humidity;BMP_temperature;BMP_pressure;BME280_temperature;BME280_humidity;BME280_pressure;Samples;Min_cycle;Max_cycle;Signal;HPM_P1;HPM_P2
2022/11/13 00:00:12;;;;;;;2.70;2.33;;;12.40;99.90;;;;;;5045180;28;20127;-79
2022/11/13 00:02:39;;;;;;;2.92;2.20;;;12.50;99.90;;;;;;5041885;28;20065;-80
2022/11/13 00:05:06;;;;;;;3.15;2.63;;;12.50;99.90;;;;;;5028366;28;20519;-80
2022/11/13 00:07:33;;;;;;;2.65;2.13;;;12.50;99.90;;;;;;5024383;28;20132;-80
2022/11/13 00:10:00;;;;;;;2.80;2.03;;;12.60;99.90;;;;;;5023656;28;20049;-80
2022/11/13 00:12:28;;;;;;;2.40;2.08;;;12.60;99.90;;;;;;5018019;28;20076;-80
2022/11/13 00:14:54;;;;;;;2.70;2.13;;;12.60;99.90;;;;;;5037917;28;20067;-80
2022/11/13 00:17:21;;;;;;;3.03;2.33;;;12.60;99.90;;;;;;5026976;28;20495;-80
2022/11/13 00:19:48;;;;;;;2.65;2.25;;;12.60;99.90;;;;;;5041873;28;20041;-80
2022/11/13 00:22:15;;;;;;;3.33;2.42;;;12.60;99.90;;;;;;5043208;28;20080;-80
2022/11/13 00:24:42;;;;;;;3.55;3.20;;;12.60;99.90;;;;;;5044250;28;20045;-80
2022/11/13 00:27:09;;;;;;;3.05;2.35;;;12.60;99.90;;;;;;5043030;28;20049;-80
2022/11/13 00:29:35;;;;;;;3.03;2.60;;;12.60;99.90;;;;;;5043348;28;20053;-80
2022/11/13 00:32:03;;;;;;;2.80;2.20;;;12.70;99.90;;;;;;5022747;28;20071;-81
2022/11/13 00:34:29;;;;;;;2.72;2.22;;;12.70;99.90;;;;;;5032961;28;20049;-80
2022/11/13 00:37:13;;;;;;;3.55;2.53;;;12.70;99.90;;;;;;5043034;28;20045;-80
2022/11/13 00:39:40;;;;;;;2.92;2.50;;;12.70;99.90;;;;;;5043720;28;20081;-80
2022/11/13 00:42:07;;;;;;;2.70;2.13;;;12.70;99.90;;;;;;5042568;28;20125;-81
2022/11/13 00:44:34;;;;;;;2.58;2.03;;;12.70;99.90;;;;;;5017092;28;20088;-80
2022/11/13 00:47:01;;;;;;;3.20;2.80;;;12.70;99.90;;;;;;5021373;28;20150;-80
2022/11/13 00:49:28;;;;;;;3.00;2.47;;;12.70;99.90;;;;;;5023222;28;20057;-80
2022/11/13 00:51:55;;;;;;;2.80;2.30;;;12.70;99.90;;;;;;5032801;28;20075;-79
2022/11/13 00:54:22;;;;;;;2.53;2.17;;;12.70;99.90;;;;;;5042671;28;20217;-80
2022/11/13 00:56:48;;;;;;;2.88;2.45;;;12.70;99.90;;;;;;5044359;28;20472;-79
2022/11/13 00:59:15;;;;;;;3.00;2.47;;;12.70;99.90;;;;;;5042532;28;20071;-81
2022/11/13 01:01:42;;;;;;;3.42;2.50;;;12.70;99.90;;;;;;5042830;28;20061;-80
2022/11/13 01:04:09;;;;;;;2.63;2.35;;;12.70;99.90;;;;;;5041654;28;20119;-81
2022/11/13 01:06:36;;;;;;;2.65;2.42;;;12.60;99.90;;;;;;5042778;28;20532;-81
2022/11/13 01:09:03;;;;;;;3.45;2.50;;;12.60;99.90;;;;;;5044041;28;20543;-81
2022/11/13 01:11:30;;;;;;;3.65;2.53;;;12.60;99.90;;;;;;5042106;28;20125;-80
2022/11/13 01:13:57;;;;;;;2.90;2.33;;;12.60;99.90;;;;;;5041643;28;20056;-80
2022/11/13 01:16:24;;;;;;;2.42;2.10;;;12.60;99.90;;;;;;5009204;28;20056;-81
2022/11/13 01:18:54;;;;;;;3.15;2.65;;;12.60;99.90;;;;;;5041185;28;20053;-81
2022/11/13 01:21:23;;;;;;;2.85;2.42;;;12.60;99.90;;;;;;5019964;28;20053;-81
2022/11/13 01:23:50;;;;;;;2.90;2.22;;;12.60;99.90;;;;;;5027022;28;20063;-80
2022/11/13 01:26:24;;;;;;;2.95;2.40;;;12.70;99.90;;;;;;5024821;28;20056;-80
2022/11/13 01:28:51;;;;;;;2.78;2.33;;;12.70;99.90;;;;;;5043214;28;20055;-80
2022/11/13 01:31:20;;;;;;;2.20;1.85;;;12.70;99.90;;;;;;5040689;28;20061;-80
2022/11/13 01:33:47;;;;;;;2.72;2.15;;;12.70;99.90;;;;;;5040595;28;20045;-81
2022/11/13 01:36:16;;;;;;;3.30;2.58;;;12.70;99.90;;;;;;5039878;28;20089;-79
2022/11/13 01:38:43;;;;;;;3.28;2.53;;;12.70;99.90;;;;;;5024164;28;20080;-80
2022/11/13 01:41:22;;;;;;;3.20;2.75;;;12.70;99.90;;;;;;5041133;28;20099;-80
2022/11/13 01:43:50;;;;;;;2.83;2.10;;;12.70;99.90;;;;;;5041626;28;20136;-80
2022/11/13 01:46:21;;;;;;;3.25;2.58;;;12.70;99.90;;;;;;5024945;28;20162;-80
2022/11/13 01:49:06;;;;;;;2.78;2.50;;;12.70;99.90;;;;;;5040794;28;20053;-80
2022/11/13 01:51:39;;;;;;;3.30;2.63;;;12.70;99.90;;;;;;5041542;28;20099;-79
2022/11/13 01:54:12;;;;;;;2.30;1.98;;;12.70;99.90;;;;;;5041304;28;20152;-79
2022/11/13 01:56:38;;;;;;;2.65;2.00;;;12.70;99.90;;;;;;5024547;28;20144;-80
2022/11/13 01:59:11;;;;;;;2.58;2.22;;;12.70;99.90;;;;;;5041254;28;20045;-79
2022/11/13 02:01:38;;;;;;;3.15;2.17;;;12.70;99.90;;;;;;5005316;28;20072;-79
2022/11/13 02:04:05;;;;;;;2.78;1.98;;;12.70;99.90;;;;;;5039943;28;20041;-79
2022/11/13 02:06:44;;;;;;;2.60;2.17;;;12.70;99.90;;;;;;5041186;28;20135;-80
2022/11/13 02:09:12;;;;;;;2.53;2.05;;;12.70;99.90;;;;;;5040399;28;20049;-80
2022/11/13 02:11:38;;;;;;;2.25;1.67;;;12.70;99.90;;;;;;5024791;28;20053;-80
2022/11/13 02:14:05;;;;;;;2.25;1.60;;;12.70;99.90;;;;;;5040907;28;20055;-80
2022/11/13 02:16:32;;;;;;;2.25;1.60;;;12.70;99.90;;;;;;5008041;28;20057;-80
2022/11/13 02:19:00;;;;;;;2.28;1.80;;;12.70;99.90;;;;;;5023325;28;20492;-80
2022/11/13 02:21:51;;;;;;;1.98;1.60;;;12.70;99.90;;;;;;5023611;28;20488;-80
2022/11/13 02:24:31;;;;;;;2.08;1.55;;;12.70;99.90;;;;;;5042437;28;20048;-80
2022/11/13 02:27:05;;;;;;;2.20;1.60;;;12.70;99.90;;;;;;5041286;28;20049;-80
2022/11/13 02:29:31;;;;;;;2.03;1.52;;;12.60;99.90;;;;;;5040671;28;20146;-80
2022/11/13 02:31:58;;;;;;;2.13;1.70;;;12.50;99.90;;;;;;5027162;28;20053;-81
2022/11/13 02:34:25;;;;;;;2.08;1.67;;;12.50;99.90;;;;;;5039681;28;20045;-81
2022/11/13 02:36:52;;;;;;;2.40;1.75;;;12.40;99.90;;;;;;5025289;28;20048;-80
2022/11/13 02:39:19;;;;;;;2.47;1.80;;;12.40;99.90;;;;;;5026313;28;20063;-81
2022/11/13 02:41:45;;;;;;;2.40;1.73;;;12.20;99.90;;;;;;5041931;28;20167;-80
2022/11/13 02:44:12;;;;;;;1.90;1.58;;;12.20;99.90;;;;;;5042741;28;20051;-80
2022/11/13 02:46:39;;;;;;;2.20;1.70;;;12.10;99.90;;;;;;5041760;28;20049;-80
2022/11/13 02:49:06;;;;;;;1.88;1.55;;;12.00;99.90;;;;;;5041549;28;20049;-80
2022/11/13 02:51:33;;;;;;;2.30;1.80;;;12.00;99.90;;;;;;5041232;28;20159;-80
2022/11/13 02:54:00;;;;;;;1.88;1.50;;;11.90;99.90;;;;;;5025485;28;20479;-80
2022/11/13 02:56:27;;;;;;;2.28;1.70;;;11.80;99.90;;;;;;5025807;28;20144;-79
2022/11/13 02:58:54;;;;;;;2.05;1.50;;;11.70;99.90;;;;;;5042272;28;20052;-80
2022/11/13 03:01:21;;;;;;;2.17;1.80;;;11.60;99.90;;;;;;5042826;28;20080;-80
2022/11/13 03:03:48;;;;;;;1.98;1.50;;;11.60;99.90;;;;;;5025092;28;20065;-80
2022/11/13 03:06:23;;;;;;;2.00;1.60;;;11.50;99.90;;;;;;5042104;28;20053;-80
2022/11/13 03:08:50;;;;;;;1.77;1.25;;;11.40;99.90;;;;;;5042135;28;20063;-81
2022/11/13 03:11:17;;;;;;;2.03;1.55;;;11.40;99.90;;;;;;5043312;28;20151;-80
2022/11/13 03:13:44;;;;;;;1.70;1.45;;;11.30;99.90;;;;;;5041801;28;20102;-80
2022/11/13 03:16:13;;;;;;;2.70;1.90;;;11.30;99.90;;;;;;5041535;28;20674;-81
2022/11/13 03:18:40;;;;;;;2.20;1.52;;;11.20;99.90;;;;;;5041675;28;20459;-81
2022/11/13 03:21:08;;;;;;;2.28;1.58;;;11.20;99.90;;;;;;5042375;28;20167;-80
2022/11/13 03:23:35;;;;;;;2.30;1.42;;;11.20;99.90;;;;;;5047447;28;20053;-80
2022/11/13 03:26:04;;;;;;;2.75;1.73;;;11.10;99.90;;;;;;5046558;28;20476;-80
2022/11/13 03:28:31;;;;;;;2.50;1.90;;;11.20;99.90;;;;;;5046883;28;20045;-80
2022/11/13 03:30:58;;;;;;;2.20;1.67;;;11.20;99.90;;;;;;5029441;28;20562;-80
2022/11/13 03:33:25;;;;;;;1.90;1.50;;;11.20;99.90;;;;;;5046359;28;20055;-80
2022/11/13 03:35:52;;;;;;;2.10;1.70;;;11.30;99.90;;;;;;5046793;28;20093;-80
2022/11/13 03:38:19;;;;;;;2.10;1.55;;;11.40;99.90;;;;;;5029388;28;20051;-80
2022/11/13 03:40:46;;;;;;;2.30;1.60;;;11.40;99.90;;;;;;5047342;28;20052;-80
2022/11/13 03:43:12;;;;;;;2.28;1.52;;;11.50;99.90;;;;;;5045367;28;20034;-80
2022/11/13 03:45:39;;;;;;;1.67;1.08;;;11.60;99.90;;;;;;5045705;28;20144;-81
2022/11/13 03:48:06;;;;;;;2.22;1.70;;;11.60;99.90;;;;;;5028572;28;20048;-80
2022/11/13 03:50:33;;;;;;;1.98;1.42;;;11.70;99.90;;;;;;5029144;28;20060;-80
2022/11/13 03:53:00;;;;;;;1.90;1.33;;;11.70;99.90;;;;;;5046053;28;20417;-81
2022/11/13 03:55:27;;;;;;;1.77;1.30;;;11.80;99.90;;;;;;5046133;28;20041;-79
2022/11/13 03:57:54;;;;;;;2.00;1.30;;;11.90;99.90;;;;;;5045544;28;20059;-79
2022/11/13 04:00:22;;;;;;;2.28;1.70;;;11.90;99.90;;;;;;5029394;28;20045;-80
2022/11/13 04:02:49;;;;;;;1.88;1.20;;;11.90;99.90;;;;;;5027626;28;20053;-80
2022/11/13 04:05:16;;;;;;;2.10;1.50;;;12.00;99.90;;;;;;5046066;28;20045;-80
2022/11/13 04:07:48;;;;;;;1.92;1.60;;;12.00;99.90;;;;;;5045011;28;20171;-80
2022/11/13 04:10:15;;;;;;;2.00;1.48;;;12.00;99.90;;;;;;5045417;28;20053;-80
2022/11/13 04:12:42;;;;;;;2.60;1.75;;;12.00;99.90;;;;;;5045258;28;20048;-80
2022/11/13 04:15:09;;;;;;;2.05;1.70;;;12.10;99.90;;;;;;5028857;28;20448;-80
2022/11/13 04:17:36;;;;;;;1.85;1.20;;;12.10;99.90;;;;;;5043973;28;20053;-79
2022/11/13 04:20:03;;;;;;;1.65;1.35;;;12.10;99.90;;;;;;5046561;28;20051;-80
2022/11/13 04:22:30;;;;;;;2.70;1.70;;;12.10;99.90;;;;;;5024484;28;20053;-81
2022/11/13 04:24:56;;;;;;;2.13;1.42;;;12.20;99.90;;;;;;5043453;28;20048;-81
2022/11/13 04:27:23;;;;;;;1.90;1.48;;;12.20;99.90;;;;;;5045219;28;20053;-81
2022/11/13 04:29:50;;;;;;;1.85;1.60;;;12.20;99.90;;;;;;5044720;28;20143;-81
2022/11/13 04:32:17;;;;;;;1.85;1.30;;;12.20;99.90;;;;;;5007840;28;20059;-81
2022/11/13 04:34:44;;;;;;;2.53;1.52;;;12.20;99.90;;;;;;5040302;28;20735;-81
2022/11/13 04:37:10;;;;;;;2.10;1.50;;;12.20;99.90;;;;;;5011698;28;20045;-81
2022/11/13 04:39:37;;;;;;;2.60;2.00;;;12.20;99.90;;;;;;5045989;28;20053;-81
2022/11/13 04:44:49;;;;;;;2.25;1.70;;;12.20;99.90;;;;;;5043299;28;20059;-81
2022/11/13 04:47:16;;;;;;;2.30;1.90;;;12.20;99.90;;;;;;5028215;28;20479;-81
2022/11/13 04:49:43;;;;;;;2.45;1.88;;;12.20;99.90;;;;;;5027041;28;20055;-81
2022/11/13 04:52:10;;;;;;;2.20;1.52;;;12.20;99.90;;;;;;5043949;28;20059;-81
2022/11/13 04:54:36;;;;;;;1.95;1.67;;;12.20;99.90;;;;;;5044862;28;20052;-81
2022/11/13 04:57:03;;;;;;;3.00;2.25;;;12.20;99.90;;;;;;5044766;28;20049;-80
2022/11/13 04:59:30;;;;;;;3.08;2.35;;;12.20;99.90;;;;;;5040917;28;21680;-79
2022/11/13 05:01:57;;;;;;;3.17;2.03;;;12.20;99.90;;;;;;5036394;28;20041;-80
2022/11/13 05:04:24;;;;;;;2.88;2.10;;;12.20;99.90;;;;;;5032849;28;20072;-80
2022/11/13 05:06:50;;;;;;;2.53;1.90;;;12.20;99.90;;;;;;5018632;28;20056;-80
2022/11/13 05:09:17;;;;;;;2.53;1.92;;;12.20;99.90;;;;;;5045043;28;20052;-80
2022/11/13 05:11:44;;;;;;;3.10;2.08;;;12.20;99.90;;;;;;5024246;28;20854;-81
2022/11/13 05:14:11;;;;;;;2.55;2.20;;;12.20;99.90;;;;;;5044279;28;20048;-80
2022/11/13 05:16:38;;;;;;;2.30;1.80;;;12.20;99.90;;;;;;5042157;28;20068;-78
2022/11/13 05:19:05;;;;;;;3.13;2.22;;;12.20;99.90;;;;;;5043711;28;20073;-78
2022/11/13 05:21:36;;;;;;;2.30;1.95;;;12.20;99.90;;;;;;5027088;28;20053;-80
2022/11/13 05:24:03;;;;;;;2.33;1.67;;;12.20;99.90;;;;;;5030305;28;20127;-80
2022/11/13 05:26:30;;;;;;;2.65;1.83;;;12.20;99.90;;;;;;5032997;28;20554;-80
2022/11/13 05:29:00;;;;;;;2.55;2.17;;;12.20;99.90;;;;;;5025263;28;20043;-80
2022/11/13 05:31:27;;;;;;;2.30;2.00;;;12.20;99.90;;;;;;5029502;28;20071;-79
2022/11/13 05:33:54;;;;;;;2.53;1.98;;;12.30;99.90;;;;;;5029130;28;20050;-79
2022/11/13 05:36:21;;;;;;;2.53;1.92;;;12.20;99.90;;;;;;5028478;28;20050;-80
2022/11/13 05:38:48;;;;;;;2.88;2.03;;;12.20;99.90;;;;;;5026168;28;20128;-79
2022/11/13 05:41:17;;;;;;;2.60;2.13;;;12.20;99.90;;;;;;5033112;28;20080;-79
2022/11/13 05:43:47;;;;;;;2.55;1.75;;;12.20;99.90;;;;;;5039218;28;20081;-79
2022/11/13 05:46:16;;;;;;;2.60;2.00;;;12.10;99.90;;;;;;5030936;28;20054;-79
2022/11/13 05:48:42;;;;;;;2.53;1.92;;;12.10;99.90;;;;;;5026164;28;20057;-79
2022/11/13 05:51:19;;;;;;;2.42;2.13;;;12.20;99.90;;;;;;5023761;28;20500;-79
2022/11/13 05:53:46;;;;;;;2.40;1.92;;;12.10;99.90;;;;;;5034790;28;20094;-80
2022/11/13 05:56:17;;;;;;;1.98;1.58;;;12.10;99.90;;;;;;5037892;28;20045;-79
2022/11/13 05:58:44;;;;;;;2.58;2.03;;;12.10;99.90;;;;;;5021439;28;20060;-79
2022/11/13 06:01:21;;;;;;;1.77;1.50;;;12.10;99.90;;;;;;5032584;28;20087;-79
2022/11/13 06:03:48;;;;;;;2.10;1.60;;;12.10;99.90;;;;;;5031424;28;20048;-80
2022/11/13 06:06:17;;;;;;;2.72;1.50;;;12.10;99.90;;;;;;5033840;28;20053;-79
2022/11/13 06:08:44;;;;;;;1.77;1.33;;;12.10;99.90;;;;;;5019404;28;20053;-80
2022/11/13 06:11:13;;;;;;;2.17;1.73;;;12.10;99.90;;;;;;5019846;28;20883;-78
2022/11/13 06:13:40;;;;;;;2.72;2.00;;;12.10;99.90;;;;;;5037486;28;20074;-79
2022/11/13 06:16:17;;;;;;;1.85;1.38;;;12.10;99.90;;;;;;5004510;28;20063;-80
2022/11/13 06:18:45;;;;;;;2.63;2.13;;;12.10;99.90;;;;;;5021179;28;20342;-80
2022/11/13 06:21:17;;;;;;;2.13;1.52;;;12.00;99.90;;;;;;5028244;28;20103;-80
2022/11/13 06:23:44;;;;;;;2.80;2.03;;;12.00;99.90;;;;;;5006952;28;20149;-80
2022/11/13 06:26:13;;;;;;;2.42;1.83;;;12.00;99.90;;;;;;5026816;28;20298;-80
2022/11/13 06:28:40;;;;;;;2.10;1.80;;;12.00;99.90;;;;;;5029119;28;20056;-80
2022/11/13 06:31:09;;;;;;;2.28;1.67;;;12.00;99.90;;;;;;5027979;28;20128;-80
2022/11/13 06:33:36;;;;;;;2.35;2.03;;;12.00;99.90;;;;;;5004498;28;20148;-80
2022/11/13 06:36:05;;;;;;;2.80;1.85;;;11.90;99.90;;;;;;5012261;28;20530;-80
2022/11/13 06:38:32;;;;;;;2.53;1.95;;;11.90;99.90;;;;;;5005197;28;20068;-80
2022/11/13 06:40:59;;;;;;;1.52;1.33;;;11.90;99.90;;;;;;5032703;28;20639;-80
2022/11/13 06:43:27;;;;;;;1.73;1.30;;;11.90;99.90;;;;;;5035686;28;20045;-80
2022/11/13 06:45:54;;;;;;;1.63;1.10;;;11.90;99.90;;;;;;5020577;28;20053;-79
2022/11/13 06:48:21;;;;;;;1.85;1.40;;;11.90;99.90;;;;;;5017865;28;20148;-80
2022/11/13 06:50:48;;;;;;;1.42;1.20;;;11.90;99.90;;;;;;5005583;28;20079;-80
2022/11/13 06:53:15;;;;;;;2.20;1.40;;;11.90;99.90;;;;;;5030729;28;20103;-79
2022/11/13 06:55:44;;;;;;;1.55;1.35;;;11.90;99.90;;;;;;5033276;28;20554;-80
2022/11/13 06:58:11;;;;;;;1.80;1.30;;;11.90;99.90;;;;;;5038520;28;20049;-80
2022/11/13 07:00:38;;;;;;;1.40;1.02;;;11.90;99.90;;;;;;5024146;28;20060;-80
2022/11/13 07:03:06;;;;;;;1.38;1.05;;;11.80;99.90;;;;;;5028016;28;20061;-80
2022/11/13 07:05:35;;;;;;;1.77;1.42;;;11.80;99.90;;;;;;5026681;28;20053;-80
2022/11/13 07:08:02;;;;;;;1.50;1.10;;;11.80;99.90;;;;;;5018356;28;20372;-80
2022/11/13 07:10:29;;;;;;;1.90;1.40;;;11.70;99.90;;;;;;5020757;28;20153;-80
2022/11/13 07:12:59;;;;;;;2.15;1.55;;;11.70;99.90;;;;;;5033070;28;20053;-81
2022/11/13 07:15:26;;;;;;;2.13;1.40;;;11.70;99.90;;;;;;5030315;28;20515;-80
2022/11/13 07:17:53;;;;;;;1.80;1.27;;;11.70;99.90;;;;;;5022902;28;20049;-79
2022/11/13 07:20:20;;;;;;;1.27;1.10;;;11.70;99.90;;;;;;5035956;28;20045;-78
2022/11/13 07:22:47;;;;;;;2.15;1.65;;;11.70;99.90;;;;;;5016460;28;20370;-79
2022/11/13 07:25:14;;;;;;;1.35;1.13;;;11.70;99.90;;;;;;5025709;28;20045;-78
2022/11/13 07:27:44;;;;;;;1.60;1.38;;;11.70;99.90;;;;;;5035825;28;20163;-79
2022/11/13 07:30:14;;;;;;;1.53;1.13;;;11.70;99.90;;;;;;5027551;28;20107;-79
2022/11/13 07:32:41;;;;;;;1.33;1.10;;;11.70;99.90;;;;;;5009466;28;20969;-78
2022/11/13 07:35:08;;;;;;;1.40;1.00;;;11.70;99.90;;;;;;5028797;28;20061;-79
2022/11/13 07:37:35;;;;;;;1.58;1.10;;;11.70;99.90;;;;;;5023135;28;20430;-79
2022/11/13 07:40:03;;;;;;;1.55;1.13;;;11.70;99.90;;;;;;5036633;28;20083;-78
2022/11/13 07:42:30;;;;;;;1.55;1.17;;;11.60;99.90;;;;;;5019331;28;20156;-78
2022/11/13 07:44:56;;;;;;;1.70;1.20;;;11.60;99.90;;;;;;5036683;28;20071;-78
2022/11/13 07:47:23;;;;;;;1.52;1.13;;;11.60;99.90;;;;;;5036276;28;20055;-78
2022/11/13 07:49:50;;;;;;;1.48;1.20;;;11.70;99.90;;;;;;5020100;28;20095;-79
2022/11/13 07:52:17;;;;;;;1.58;1.17;;;11.70;99.90;;;;;;5023579;28;20056;-79
2022/11/13 07:54:44;;;;;;;1.45;1.15;;;11.70;99.90;;;;;;5037158;28;20049;-80
2022/11/13 07:57:10;;;;;;;1.80;1.45;;;11.70;99.90;;;;;;5021900;28;20491;-79
2022/11/13 07:59:37;;;;;;;1.65;1.30;;;11.70;99.90;;;;;;5029979;28;20112;-80
2022/11/13 08:02:05;;;;;;;1.40;1.00;;;11.70;99.90;;;;;;5033501;28;20430;-79
2022/11/13 08:04:32;;;;;;;2.17;1.52;;;11.80;99.90;;;;;;5024424;28;20431;-79
2022/11/13 08:07:01;;;;;;;1.85;1.38;;;11.70;99.90;;;;;;5015520;28;20598;-79
2022/11/13 08:09:28;;;;;;;1.52;1.27;;;11.80;99.90;;;;;;5026672;28;20084;-80
2022/11/13 08:11:55;;;;;;;1.58;1.25;;;11.80;99.90;;;;;;5028826;28;20041;-79
2022/11/13 08:14:21;;;;;;;1.58;1.20;;;11.90;99.90;;;;;;5028831;28;20562;-78
2022/11/13 08:16:48;;;;;;;2.03;1.40;;;11.90;99.90;;;;;;5028911;28;20069;-78
2022/11/13 08:19:15;;;;;;;2.10;1.30;;;11.90;99.90;;;;;;5029692;28;20140;-79
2022/11/13 08:21:42;;;;;;;1.90;1.40;;;11.80;99.90;;;;;;5035224;28;20787;-79
2022/11/13 08:24:09;;;;;;;1.33;1.00;;;11.90;99.90;;;;;;5012044;28;20421;-80
2022/11/13 08:26:37;;;;;;;1.80;1.55;;;11.90;99.90;;;;;;5029974;28;20511;-79
2022/11/13 08:29:04;;;;;;;1.98;1.52;;;11.90;99.90;;;;;;5033538;28;20083;-78
2022/11/13 08:31:31;;;;;;;1.60;1.33;;;11.90;99.90;;;;;;5033010;28;20076;-79
2022/11/13 08:33:59;;;;;;;2.05;1.50;;;11.90;99.90;;;;;;5034610;28;20783;-79
2022/11/13 08:36:26;;;;;;;2.42;1.50;;;11.90;99.90;;;;;;5021081;28;20050;-79
2022/11/13 08:38:53;;;;;;;2.10;1.48;;;11.80;99.90;;;;;;5016037;28;20056;-78
2022/11/13 08:41:19;;;;;;;1.67;1.27;;;11.80;99.90;;;;;;5035722;28;20049;-79
2022/11/13 08:43:46;;;;;;;1.65;1.27;;;11.90;99.90;;;;;;5038228;28;20068;-79
2022/11/13 08:46:13;;;;;;;1.40;1.15;;;11.90;99.90;;;;;;5023366;28;20053;-79
2022/11/13 08:48:40;;;;;;;1.40;1.02;;;11.90;99.90;;;;;;5026215;28;20479;-79
2022/11/13 08:51:07;;;;;;;1.77;1.40;;;11.90;99.90;;;;;;5018905;28;20506;-80
2022/11/13 08:53:33;;;;;;;1.13;1.00;;;11.90;99.90;;;;;;5029624;28;20052;-79
2022/11/13 08:56:01;;;;;;;1.30;1.00;;;12.00;99.90;;;;;;5021508;28;20091;-79
2022/11/13 08:58:28;;;;;;;1.65;1.30;;;12.00;99.90;;;;;;5024895;28;20171;-79
2022/11/13 09:00:59;;;;;;;2.42;1.75;;;11.90;99.90;;;;;;5027369;28;20134;-80
2022/11/13 09:03:26;;;;;;;1.48;1.17;;;11.90;99.90;;;;;;5032906;28;20049;-79
2022/11/13 09:05:53;;;;;;;1.33;1.15;;;11.90;99.90;;;;;;5034873;28;20053;-80
2022/11/13 09:08:20;;;;;;;1.67;1.48;;;11.90;99.90;;;;;;5038668;28;20150;-79
2022/11/13 09:10:47;;;;;;;1.70;1.25;;;11.90;99.90;;;;;;5040817;28;20125;-79
2022/11/13 09:13:14;;;;;;;1.73;1.38;;;11.80;99.90;;;;;;5035348;28;20092;-80
2022/11/13 09:15:41;;;;;;;1.38;1.20;;;11.80;99.90;;;;;;5022477;28;20053;-80
2022/11/13 09:18:10;;;;;;;1.58;1.38;;;11.90;99.90;;;;;;5011722;28;20376;-79
2022/11/13 09:20:38;;;;;;;1.88;1.17;;;11.90;99.90;;;;;;5019548;28;20056;-79
2022/11/13 09:23:06;;;;;;;1.00;0.90;;;12.00;99.90;;;;;;5021236;28;20052;-79
2022/11/13 09:25:34;;;;;;;1.10;1.00;;;12.10;99.90;;;;;;5038689;28;20527;-79
2022/11/13 09:28:03;;;;;;;1.50;1.10;;;12.10;99.90;;;;;;5032581;28;20068;-79
2022/11/13 09:30:30;;;;;;;1.48;1.20;;;12.20;99.90;;;;;;5028462;28;20125;-79
2022/11/13 09:32:58;;;;;;;2.10;1.40;;;12.20;99.90;;;;;;5022288;28;20134;-79
2022/11/13 09:35:35;;;;;;;2.13;1.70;;;12.20;99.90;;;;;;5030596;28;20084;-79
2022/11/13 09:38:04;;;;;;;2.30;1.50;;;12.30;99.90;;;;;;5014963;28;20055;-78
2022/11/13 09:40:45;;;;;;;1.42;1.00;;;12.40;99.90;;;;;;5029446;28;20049;-79
2022/11/13 09:43:51;;;;;;;1.52;1.30;;;12.50;99.90;;;;;;5011464;28;20045;-79
2022/11/13 09:46:52;;;;;;;1.58;1.13;;;12.60;99.90;;;;;;5029739;28;20355;-79
2022/11/13 09:49:30;;;;;;;1.48;1.02;;;12.70;99.90;;;;;;5027513;28;20502;-79
2022/11/13 09:52:19;;;;;;;1.13;0.88;;;12.80;99.90;;;;;;5020027;28;20049;-79
2022/11/13 09:54:45;;;;;;;1.30;0.95;;;12.80;99.90;;;;;;5027865;28;20080;-79
2022/11/13 09:57:37;;;;;;;1.35;0.93;;;12.90;99.90;;;;;;5023211;28;20079;-80
2022/11/13 10:00:05;;;;;;;1.17;0.80;;;13.00;99.90;;;;;;5018897;28;20056;-79
2022/11/13 10:02:59;;;;;;;0.80;0.70;;;13.00;99.90;;;;;;5023662;28;20067;-79
2022/11/13 10:05:45;;;;;;;1.10;0.80;;;13.10;99.90;;;;;;5040668;28;20053;-78
2022/11/13 10:08:20;;;;;;;0.95;0.80;;;13.20;99.90;;;;;;5022616;28;20506;-79
2022/11/13 10:10:56;;;;;;;1.30;0.93;;;13.20;99.90;;;;;;5023090;28;20044;-79
2022/11/13 10:13:28;;;;;;;0.75;0.70;;;13.30;99.90;;;;;;5040311;28;20052;-79
2022/11/13 10:16:14;;;;;;;0.90;0.88;;;13.40;99.90;;;;;;5006080;28;20049;-79
2022/11/13 10:18:41;;;;;;;1.02;0.75;;;13.40;99.90;;;;;;5037848;28;20140;-79
2022/11/13 10:21:28;;;;;;;0.73;0.73;;;13.50;99.90;;;;;;5024666;28;20096;-79
2022/11/13 10:23:56;;;;;;;1.30;0.90;;;13.50;99.90;;;;;;5033269;28;20080;-79
2022/11/13 10:26:24;;;;;;;0.95;0.70;;;13.50;99.90;;;;;;5040039;28;20697;-78
2022/11/13 10:29:04;;;;;;;0.73;0.60;;;13.50;99.90;;;;;;5022261;28;20139;-78
2022/11/13 10:32:17;;;;;;;0.80;0.80;;;13.60;99.90;;;;;;5037938;28;20312;-78
2022/11/13 10:34:48;;;;;;;0.73;0.65;;;13.70;99.90;;;;;;5033493;28;20045;-80
2022/11/13 10:37:39;;;;;;;1.30;0.80;;;13.70;99.90;;;;;;5022398;28;20057;-79
2022/11/13 10:40:06;;;;;;;1.10;0.88;;;13.70;99.90;;;;;;5022135;28;20049;-78
2022/11/13 10:42:40;;;;;;;1.20;1.00;;;13.80;99.90;;;;;;5033157;28;20470;-79
2022/11/13 10:45:18;;;;;;;0.88;0.75;;;13.80;99.90;;;;;;5037285;28;20576;-79
2022/11/13 10:47:49;;;;;;;1.02;0.88;;;13.90;99.90;;;;;;5020839;28;20053;-80
2022/11/13 10:50:30;;;;;;;1.10;0.98;;;13.90;99.90;;;;;;5038100;28;20983;-79
2022/11/13 10:52:57;;;;;;;0.93;0.70;;;14.10;99.90;;;;;;5021313;28;20144;-78
2022/11/13 10:55:26;;;;;;;1.05;0.95;;;14.20;99.90;;;;;;5010442;28;20049;-80
2022/11/13 10:57:55;;;;;;;1.50;1.17;;;14.20;99.90;;;;;;5038506;28;20119;-80
2022/11/13 11:00:26;;;;;;;1.50;1.00;;;14.30;99.90;;;;;;5002530;28;20055;-80
2022/11/13 11:02:53;;;;;;;1.38;1.20;;;14.40;99.90;;;;;;5023680;28;20053;-80
2022/11/13 11:05:22;;;;;;;1.25;1.00;;;14.30;99.90;;;;;;5037910;28;20496;-81
2022/11/13 11:07:49;;;;;;;1.30;1.02;;;14.30;99.90;;;;;;5037499;28;20063;-80
2022/11/13 11:10:33;;;;;;;1.73;1.25;;;14.20;99.90;;;;;;5038446;28;20049;-80
2022/11/13 11:13:08;;;;;;;1.55;1.23;;;14.20;99.90;;;;;;5038041;28;20063;-81
2022/11/13 11:15:38;;;;;;;1.38;1.15;;;14.20;99.90;;;;;;5021848;28;20064;-79
2022/11/13 11:18:44;;;;;;;1.60;1.20;;;14.20;99.90;;;;;;5038639;28;20499;-79
2022/11/13 11:21:17;;;;;;;1.00;0.90;;;14.20;99.90;;;;;;5020372;28;20053;-79
2022/11/13 11:23:57;;;;;;;1.50;1.23;;;14.30;99.90;;;;;;5022025;28;20144;-79
2022/11/13 11:26:42;;;;;;;1.30;1.00;;;14.30;99.90;;;;;;5038658;28;20124;-79
2022/11/13 11:29:17;;;;;;;1.75;1.45;;;14.30;99.90;;;;;;5006159;28;20060;-79
2022/11/13 11:31:52;;;;;;;1.77;1.48;;;14.30;99.90;;;;;;5038531;28;20049;-79
2022/11/13 11:34:32;;;;;;;1.45;1.10;;;14.30;99.90;;;;;;5036833;28;20057;-80
2022/11/13 11:37:30;;;;;;;1.63;1.30;;;14.30;99.90;;;;;;5021419;28;20142;-80
2022/11/13 11:40:03;;;;;;;1.70;1.45;;;14.20;99.90;;;;;;5034988;28;20128;-80
2022/11/13 11:42:40;;;;;;;2.63;1.83;;;14.10;99.90;;;;;;5039993;28;20049;-80
2022/11/13 11:45:20;;;;;;;2.25;1.75;;;14.10;99.90;;;;;;5025123;28;20080;-80
2022/11/13 11:47:47;;;;;;;2.65;2.20;;;14.10;99.90;;;;;;5040717;28;20116;-79
2022/11/13 11:50:15;;;;;;;2.25;1.75;;;14.00;99.90;;;;;;5039491;28;20061;-79
2022/11/13 11:52:46;;;;;;;2.00;1.70;;;14.00;99.90;;;;;;5040949;28;20128;-79
2022/11/13 11:55:50;;;;;;;2.33;1.70;;;14.00;99.90;;;;;;5043584;28;20052;-80
2022/11/13 11:58:30;;;;;;;1.83;1.50;;;13.90;99.90;;;;;;5041550;28;20068;-79
2022/11/13 12:01:03;;;;;;;1.90;1.52;;;13.90;99.90;;;;;;5024577;28;20128;-79
2022/11/13 12:03:51;;;;;;;1.70;1.20;;;14.00;99.90;;;;;;5041710;28;20078;-80
2022/11/13 12:06:28;;;;;;;1.98;1.48;;;14.10;99.90;;;;;;5024136;28;20659;-81
2022/11/13 12:09:14;;;;;;;2.20;1.90;;;14.10;99.90;;;;;;5037104;28;20045;-80
2022/11/13 12:11:47;;;;;;;2.30;1.90;;;14.10;99.90;;;;;;5024476;28;20106;-80
2022/11/13 12:14:21;;;;;;;;;;;14.10;99.90;;;;;;5023109;28;20125;-81
2022/11/13 12:17:06;;;;;;;2.67;2.22;;;14.10;99.90;;;;;;5021187;28;19925;-81
2022/11/13 12:19:57;;;;;;;2.33;1.80;;;14.20;99.90;;;;;;5006705;28;20137;-80
2022/11/13 12:22:26;;;;;;;2.28;1.83;;;14.20;99.90;;;;;;5022656;28;20390;-80
2022/11/13 12:25:12;;;;;;;3.17;2.38;;;14.20;99.90;;;;;;5041085;28;20052;-80
2022/11/13 12:27:44;;;;;;;2.05;1.80;;;14.30;99.90;;;;;;5041226;28;20056;-81
2022/11/13 12:30:41;;;;;;;1.80;1.45;;;14.40;99.90;;;;;;5041391;28;20406;-82
2022/11/13 12:33:11;;;;;;;1.90;1.65;;;14.50;99.90;;;;;;5030069;28;20049;-80
2022/11/13 12:35:38;;;;;;;2.78;2.17;;;14.60;99.90;;;;;;5035974;28;20136;-81
2022/11/13 12:38:30;;;;;;;2.10;1.90;;;14.60;99.90;;;;;;5040685;28;20080;-80
2022/11/13 12:41:06;;;;;;;2.50;1.95;;;14.70;99.90;;;;;;5040441;28;20064;-81
2022/11/13 12:43:59;;;;;;;2.58;2.25;;;14.70;99.90;;;;;;5041449;28;20132;-81
2022/11/13 12:46:33;;;;;;;2.45;2.00;;;14.70;99.90;;;;;;5040070;28;20045;-81
2022/11/13 12:49:00;;;;;;;3.35;2.65;;;14.80;99.90;;;;;;5021291;28;20413;-81
2022/11/13 12:51:37;;;;;;;2.72;2.40;;;14.80;99.90;;;;;;5023493;28;20060;-82
2022/11/13 12:54:04;;;;;;;2.72;2.40;;;14.80;99.90;;;;;;5028587;28;20060;-80
2022/11/13 12:56:32;;;;;;;2.83;2.38;;;14.90;99.90;;;;;;5029788;28;20179;-81
2022/11/13 12:59:08;;;;;;;2.60;2.20;;;14.90;99.90;;;;;;5030948;28;20053;-81
2022/11/13 13:02:20;;;;;;;4.25;3.28;;;15.00;99.90;;;;;;5030007;28;20045;-81
2022/11/13 13:05:06;;;;;;;3.63;3.13;;;15.00;99.90;;;;;;5012606;28;20136;-81
2022/11/13 13:08:10;;;;;;;4.57;3.55;;;15.00;99.90;;;;;;5021533;28;20099;-79